createdAt,value
2023-03-22T00:01:30.975Z,97.60
2023-03-22T00:03:58.454Z,97.70
2023-03-22T00:06:28.479Z,97.70
2023-03-22T00:08:55.805Z,97.70
2023-03-22T00:11:25.766Z,97.60
2023-03-22T00:13:53.891Z,97.70
2023-03-22T00:16:22.083Z,97.60
2023-03-22T00:18:50.496Z,97.70
2023-03-22T00:21:21.507Z,97.60
2023-03-22T00:23:48.712Z,97.60
2023-03-22T00:26:15.742Z,97.60
2023-03-22T00:28:43.568Z,97.60
2023-03-22T00:31:14.405Z,97.60
2023-03-22T00:33:41.861Z,97.70
2023-03-22T00:36:11.972Z,97.60
2023-03-22T00:38:43.872Z,97.60
2023-03-22T00:41:20.218Z,97.60
2023-03-22T00:43:48.862Z,97.60
2023-03-22T00:46:17.659Z,97.60
2023-03-22T00:48:45.134Z,97.60
2023-03-22T00:51:12.855Z,97.60
2023-03-22T00:53:43.630Z,97.60
2023-03-22T00:56:14.520Z,97.60
2023-03-22T00:59:00.574Z,97.80
2023-03-22T01:01:29.366Z,97.50
2023-03-22T01:03:56.848Z,97.60
2023-03-22T01:06:24.023Z,97.60
2023-03-22T01:08:51.257Z,97.60
2023-03-22T01:11:18.824Z,97.60
2023-03-22T01:13:48.248Z,97.60
2023-03-22T01:16:15.666Z,97.60
2023-03-22T01:18:43.153Z,97.60
2023-03-22T01:21:13.103Z,97.60
2023-03-22T01:23:40.546Z,97.60
2023-03-22T01:26:07.846Z,97.60
2023-03-22T01:28:34.605Z,97.60
2023-03-22T01:31:02.616Z,97.60
2023-03-22T01:33:31.547Z,97.60
2023-03-22T01:35:59.315Z,97.60
2023-03-22T01:38:27.877Z,97.60
2023-03-22T01:40:59.036Z,97.60
2023-03-22T01:43:29.612Z,97.60
2023-03-22T01:45:58.492Z,97.80
2023-03-22T01:48:49.354Z,97.60
2023-03-22T01:51:23.234Z,97.60
2023-03-22T01:54:07.645Z,97.50
2023-03-22T01:56:39.353Z,97.60
2023-03-22T01:59:12.202Z,97.60
2023-03-22T02:02:03.187Z,97.80
2023-03-22T02:04:35.757Z,97.60
2023-03-22T02:07:15.636Z,97.60
2023-03-22T02:09:46.607Z,97.70
2023-03-22T02:12:38.682Z,97.80
2023-03-22T02:15:23.799Z,97.80
2023-03-22T02:18:52.984Z,97.80
2023-03-22T02:21:34.741Z,97.80
2023-03-22T02:24:37.400Z,97.80
2023-03-22T02:27:35.196Z,97.80
2023-03-22T02:30:39.709Z,97.80
2023-03-22T02:33:16.406Z,97.70
2023-03-22T02:36:06.582Z,97.90
2023-03-22T02:39:07.820Z,97.70
2023-03-22T02:41:53.663Z,97.60
2023-03-22T02:44:53.083Z,97.60
2023-03-22T02:47:38.821Z,97.60
2023-03-22T02:50:24.410Z,97.70
2023-03-22T02:52:59.497Z,97.60
2023-03-22T02:55:36.380Z,97.60
2023-03-22T02:58:12.665Z,97.70
2023-03-22T03:00:41.856Z,97.70
2023-03-22T03:03:15.232Z,97.70
2023-03-22T03:05:50.237Z,97.70
2023-03-22T03:08:22.066Z,97.70
2023-03-22T03:10:51.810Z,97.70
2023-03-22T03:13:20.125Z,97.60
2023-03-22T03:15:58.964Z,97.70
2023-03-22T03:18:45.301Z,97.70
2023-03-22T03:21:30.511Z,97.70
2023-03-22T03:24:06.555Z,97.90
2023-03-22T03:27:01.255Z,97.70
2023-03-22T03:29:39.557Z,97.60
2023-03-22T03:32:19.496Z,97.60
2023-03-22T03:35:05.705Z,97.60
2023-03-22T03:37:48.709Z,97.60
2023-03-22T03:40:24.648Z,97.60
2023-03-22T03:42:55.326Z,97.70
2023-03-22T03:45:26.753Z,97.60
2023-03-22T03:48:04.276Z,97.60
2023-03-22T03:50:34.265Z,97.70
2023-03-22T03:53:01.901Z,97.70
2023-03-22T03:55:29.498Z,97.70
2023-03-22T03:57:58.794Z,97.70
2023-03-22T04:00:26.094Z,97.70
2023-03-22T04:03:19.793Z,97.70
2023-03-22T04:06:09.797Z,97.70
2023-03-22T04:08:39.537Z,97.70
2023-03-22T04:11:07.178Z,97.70
2023-03-22T04:13:37.159Z,97.70
2023-03-22T04:16:09.607Z,97.70
2023-03-22T04:18:38.651Z,97.60
2023-03-22T04:21:08.508Z,97.60
2023-03-22T04:23:46.979Z,97.60
2023-03-22T04:26:14.284Z,97.60
2023-03-22T04:29:13.968Z,97.60
2023-03-22T04:31:45.322Z,97.60
2023-03-22T04:34:20.934Z,97.50
2023-03-22T04:36:57.574Z,97.60
2023-03-22T04:39:29.074Z,97.60
2023-03-22T04:42:06.673Z,97.60
2023-03-22T04:44:34.905Z,97.60
2023-03-22T04:47:04.928Z,97.50
2023-03-22T04:49:32.907Z,97.60
2023-03-22T04:52:00.110Z,97.50
2023-03-22T04:54:35.682Z,97.60
2023-03-22T04:57:03.701Z,97.60
2023-03-22T04:59:36.605Z,97.60
2023-03-22T05:02:03.552Z,97.60
2023-03-22T05:04:37.761Z,97.60
2023-03-22T05:07:13.351Z,97.50
2023-03-22T05:09:46.395Z,97.50
2023-03-22T05:12:14.509Z,97.50
2023-03-22T05:14:58.240Z,97.40
2023-03-22T05:17:30.722Z,97.40
2023-03-22T05:20:01.024Z,97.40
2023-03-22T05:22:28.123Z,97.40
2023-03-22T05:24:55.778Z,97.40
2023-03-22T05:27:31.832Z,97.40
2023-03-22T05:30:30.160Z,97.40
2023-03-22T05:33:04.852Z,97.40
2023-03-22T05:35:39.654Z,97.40
2023-03-22T05:38:09.331Z,97.40
2023-03-22T05:40:39.384Z,97.40
2023-03-22T05:43:06.752Z,97.40
2023-03-22T05:45:37.175Z,97.40
2023-03-22T05:48:18.862Z,97.40
2023-03-22T05:50:47.674Z,97.40
2023-03-22T05:53:21.432Z,97.40
2023-03-22T05:56:04.024Z,97.40
2023-03-22T05:58:34.217Z,97.40
2023-03-22T06:01:06.640Z,97.40
2023-03-22T06:03:46.341Z,97.40
2023-03-22T06:06:35.543Z,97.50
2023-03-22T06:09:16.924Z,97.50
2023-03-22T06:11:47.823Z,97.60
2023-03-22T06:14:19.863Z,97.60
2023-03-22T06:16:57.603Z,97.70
2023-03-22T06:19:25.739Z,97.70
2023-03-22T06:21:55.721Z,97.80
2023-03-22T06:24:25.939Z,97.90
2023-03-22T06:26:52.819Z,97.90
2023-03-22T06:29:20.359Z,97.90
2023-03-22T06:31:53.278Z,98.00
2023-03-22T06:34:22.072Z,98.00
2023-03-22T06:36:53.810Z,98.10
2023-03-22T06:39:39.535Z,98.10
2023-03-22T06:42:07.747Z,98.20
2023-03-22T06:44:35.600Z,98.30
2023-03-22T06:47:09.210Z,98.30
2023-03-22T06:49:55.864Z,98.30
2023-03-22T06:52:27.905Z,98.40
2023-03-22T06:54:57.481Z,98.40
2023-03-22T06:57:24.867Z,98.40
2023-03-22T06:59:56.684Z,98.50
2023-03-22T07:02:23.814Z,98.50
2023-03-22T07:05:26.314Z,98.60
2023-03-22T07:07:56.649Z,98.60
2023-03-22T07:10:31.027Z,98.60
2023-03-22T07:12:58.421Z,98.70
2023-03-22T07:15:28.063Z,98.80
2023-03-22T07:18:01.910Z,98.90
2023-03-22T07:20:51.464Z,99.00
2023-03-22T07:27:48.923Z,99.10
2023-03-22T07:30:17.258Z,99.10
2023-03-22T07:32:50.012Z,99.20
2023-03-22T07:35:19.869Z,99.20
2023-03-22T07:37:48.812Z,99.20
2023-03-22T07:40:27.157Z,98.90
2023-03-22T07:42:56.029Z,98.60
2023-03-22T07:45:43.467Z,98.40
2023-03-22T07:48:31.437Z,97.80
2023-03-22T07:51:16.023Z,97.30
2023-03-22T07:53:43.192Z,97.40
2023-03-22T07:56:10.226Z,96.00
2023-03-22T07:58:43.238Z,96.30
2023-03-22T08:01:10.798Z,95.00
2023-03-22T08:04:00.014Z,95.50
2023-03-22T08:06:40.730Z,94.70
2023-03-22T08:09:11.866Z,95.10
2023-03-22T08:11:39.059Z,95.10
2023-03-22T08:14:09.288Z,94.80
2023-03-22T08:16:38.554Z,94.30
2023-03-22T08:19:08.262Z,93.70
2023-03-22T08:21:37.676Z,93.50
2023-03-22T08:24:08.162Z,93.70
2023-03-22T08:27:10.661Z,92.80
2023-03-22T08:29:47.773Z,91.60
2023-03-22T08:32:18.585Z,91.20
2023-03-22T08:34:47.762Z,91.00
2023-03-22T08:37:14.676Z,90.60
2023-03-22T08:39:44.229Z,90.80
2023-03-22T08:42:23.841Z,91.30
2023-03-22T08:44:52.731Z,90.80
2023-03-22T08:47:22.061Z,90.40
2023-03-22T08:49:52.917Z,90.00
2023-03-22T08:52:31.254Z,90.30
2023-03-22T08:55:06.347Z,90.10
2023-03-22T08:57:59.302Z,90.20
2023-03-22T09:00:48.634Z,88.80
2023-03-22T09:03:25.390Z,88.70
2023-03-22T09:05:52.781Z,87.30
2023-03-22T09:08:20.597Z,84.70
2023-03-22T09:10:53.114Z,81.30
2023-03-22T09:13:21.942Z,79.10
2023-03-22T09:15:55.084Z,76.10
2023-03-22T09:18:25.869Z,72.30
2023-03-22T09:20:57.212Z,69.30
2023-03-22T09:23:30.686Z,68.30
2023-03-22T09:26:02.277Z,68.60
2023-03-22T09:28:31.081Z,68.40
2023-03-22T09:31:05.345Z,67.00
2023-03-22T09:33:38.734Z,68.30
2023-03-22T09:36:06.952Z,69.60
2023-03-22T09:38:35.744Z,71.50
2023-03-22T09:41:12.455Z,72.50
2023-03-22T09:44:13.033Z,74.50
2023-03-22T09:46:44.763Z,73.90
2023-03-22T09:49:18.778Z,74.90
2023-03-22T09:51:51.868Z,74.10
2023-03-22T09:54:37.649Z,74.50
2023-03-22T09:57:27.114Z,73.40
2023-03-22T10:00:15.243Z,69.20
2023-03-22T10:03:08.968Z,69.20
2023-03-22T10:06:20.756Z,69.60
2023-03-22T10:09:27.117Z,69.20
2023-03-22T10:12:05.399Z,69.10
2023-03-22T10:14:38.312Z,68.30
2023-03-22T10:17:19.531Z,66.80
2023-03-22T10:19:50.057Z,67.70
2023-03-22T10:22:25.444Z,69.10
2023-03-22T10:24:53.945Z,68.00
2023-03-22T10:27:23.516Z,68.30
2023-03-22T10:30:00.154Z,69.00
2023-03-22T10:32:57.078Z,69.90
2023-03-22T10:35:25.403Z,70.00
2023-03-22T10:37:58.121Z,69.60
2023-03-22T10:40:36.333Z,69.80
2023-03-22T10:43:20.379Z,70.30
2023-03-22T10:45:47.425Z,71.90
2023-03-22T10:48:34.807Z,71.10
2023-03-22T10:51:02.311Z,70.00
2023-03-22T10:53:41.929Z,69.00
2023-03-22T10:56:20.483Z,70.10
2023-03-22T10:58:49.192Z,69.80
2023-03-22T11:01:26.981Z,69.70
2023-03-22T11:03:58.470Z,67.50
2023-03-22T11:06:33.140Z,66.70
2023-03-22T11:09:10.576Z,66.60
2023-03-22T11:11:54.924Z,65.30
2023-03-22T11:14:27.376Z,64.50
2023-03-22T11:17:08.498Z,62.10
2023-03-22T11:19:51.985Z,59.80
2023-03-22T11:22:34.525Z,57.90
2023-03-22T11:25:02.847Z,57.80
2023-03-22T11:27:36.611Z,55.60
2023-03-22T11:30:26.574Z,55.90
2023-03-22T11:33:08.718Z,53.50
2023-03-22T11:35:39.888Z,53.70
2023-03-22T11:38:09.697Z,54.00
2023-03-22T11:40:37.555Z,52.90
2023-03-22T11:43:11.734Z,54.00
2023-03-22T11:45:44.431Z,53.20
2023-03-22T11:48:27.835Z,52.30
2023-03-22T11:51:04.680Z,50.80
2023-03-22T11:53:35.455Z,47.70
2023-03-22T11:56:04.904Z,48.30
2023-03-22T11:58:48.589Z,47.90
2023-03-22T12:01:38.469Z,46.50
2023-03-22T12:04:10.693Z,45.40
2023-03-22T12:06:39.144Z,44.10
2023-03-22T12:09:16.577Z,43.20
2023-03-22T12:11:55.352Z,42.80
2023-03-22T12:14:27.243Z,42.80
2023-03-22T12:17:11.059Z,41.50
2023-03-22T12:19:44.088Z,41.00
2023-03-22T12:22:20.864Z,42.30
2023-03-22T12:24:48.379Z,40.80
2023-03-22T12:27:36.599Z,41.20
2023-03-22T12:30:12.224Z,41.60
2023-03-22T12:32:44.775Z,42.00
2023-03-22T12:35:23.088Z,44.20
2023-03-22T12:37:56.545Z,45.50
2023-03-22T12:40:36.997Z,46.30
2023-03-22T12:43:16.159Z,46.70
2023-03-22T12:45:48.949Z,46.60
2023-03-22T12:48:34.599Z,46.50
2023-03-22T12:51:12.163Z,46.80
2023-03-22T12:53:45.527Z,46.70
2023-03-22T12:56:17.147Z,47.10
2023-03-22T12:58:49.890Z,46.90
2023-03-22T13:01:22.567Z,47.20
2023-03-22T13:03:53.746Z,46.70
2023-03-22T13:06:31.874Z,47.10
2023-03-22T13:09:20.503Z,47.70
2023-03-22T13:11:51.713Z,47.50
2023-03-22T13:14:49.082Z,47.00
2023-03-22T13:17:37.795Z,47.50
2023-03-22T13:20:08.068Z,47.40
2023-03-22T13:22:38.208Z,47.10
2023-03-22T13:25:20.006Z,45.90
2023-03-22T13:27:57.622Z,46.80
2023-03-22T13:30:32.881Z,47.40
2023-03-22T13:33:13.367Z,46.80
2023-03-22T13:35:55.462Z,46.70
2023-03-22T13:38:27.837Z,46.30
2023-03-22T13:41:23.221Z,46.10
2023-03-22T13:43:59.824Z,46.90
2023-03-22T13:46:37.643Z,46.50
2023-03-22T13:49:35.188Z,46.80
2023-03-22T13:52:06.126Z,46.80
2023-03-22T13:54:49.110Z,47.20
2023-03-22T13:57:37.755Z,46.80
2023-03-22T14:00:20.762Z,46.50
2023-03-22T14:02:52.701Z,47.30
2023-03-22T14:05:27.292Z,46.90
2023-03-22T14:07:59.333Z,46.80
2023-03-22T14:10:49.476Z,45.90
2023-03-22T14:13:38.320Z,45.60
2023-03-22T14:16:19.284Z,45.60
2023-03-22T14:18:50.589Z,46.10
2023-03-22T14:21:23.685Z,46.90
